Providence, Rhode Island
Traffic Map
Current Weather Conditions
Providence, Rhode Island
Broken Clouds
Broken Clouds
76°
Feels Like: 76°
Wind Chill: 76° Ceiling: 1700
Heat Index: 76° Visibility: 10mi
Dew Point: 68° Wind: 9mph
Humidity: 76% Direction: 240° (WSW)
Pressure: 29.99in Gusts: 0mph
Raw Report DataKPVD 311351Z 24008KT 10SM BKN017 BKN023 BKN240 24/20 A2999 RMK AO2 SLP156 T02440200
Traffic Incident Summary
Active as of:
Severity:
Category:
InformationThere was an issue retrieving the traffic information for this location. Please try a different location or try again shortly.
Advertisements
Track Severe Weather on mobile